Contact Us - Flying Club related Information

Contact

Contact-image

Enquiries for all Trim Flying Club related items - Intro Flights, Membership, PPL, Vouchers, Birthdays

Address:
Trim Flying Club
Dunganny
Trim Co Meath
Ireland

As Trim Flying Club is a part time organisation, there may not always be someone on-site at the airfield.

We will deal with flying related queries only.

Attention: Do not contact us if you are a third party enquiring about search engine optimisation.

Mobile: MOBILE - 086 847 1620 Liam / 087 397 9047 Vincent

http://www.trimflyingclub.ie

Contact Form

Send an email. All fields with an * are required.

Other information

Other information:

Please us this Contact Form to enquire about Intro Flights, Club Membership, Learning to Fly and all Club related material at Trim Flying Club

Trim Flying Club goes to the Aran Islands

Learn to fly at Trim Flying Club

Rainfall Radar Now

Atlantic Charts Pressure - Today

Atlantic Charts Rainfall - Today

 
 

Atlantic Charts Pressure - Tomorrow

Sunrise Sunset

Click for Dublin, Ireland Forecast

Aviation WX Dublin EIDW

[source: ADDS]
METAR
EIDW 260500Z 28006KT CAVOK 14/12 Q1017 NOSIG =
TAF
TAF EIDW 252300Z 2600/2624 VRB03KT 9999 FEW030 BECMG 2605/2607 26008KT FEW017 BKN022 TEMPO 2607/2610 5000 RA SCT007 BKN012 TEMPO 2610/2616 SHRA SCT020CB PROB30 TEMPO 2610/2617 5000 BKN015 BECMG 2612/2615 31010KT BECMG 2621/2624 27007KT =